Time;durP1;ratioP1;P1;durP2;ratioP2;P2;SDS_P1;SDS_P2;PMS_P1;PMS_P2;Temp;Humidity;BMP_temperature;BMP_pressure;BME280_temperature;BME280_humidity;BME280_pressure;Samples;Min_cycle;Max_cycle;Signal;HPM_P1;HPM_P2
2023/07/11 00:00:57;;;;;;;1.80;0.90;;;;;25.30;101535.00;;;;5084347;28;20202;-79
2023/07/11 00:03:24;;;;;;;1.75;0.98;;;;;25.30;101544.00;;;;5085224;28;20190;-79
2023/07/11 00:06:00;;;;;;;3.17;0.90;;;;;25.20;101538.00;;;;5084653;28;20194;-79
2023/07/11 00:08:28;;;;;;;5.47;1.40;;;;;25.30;101541.00;;;;5078909;28;20202;-79
2023/07/11 00:10:55;;;;;;;1.40;0.77;;;;;25.30;101536.00;;;;5086967;28;20201;-79
2023/07/11 00:13:22;;;;;;;2.95;1.15;;;;;25.20;101538.00;;;;5086510;28;20226;-79
2023/07/11 00:15:56;;;;;;;4.05;0.93;;;;;25.10;101536.00;;;;5086419;28;20190;-79
2023/07/11 00:18:24;;;;;;;1.77;1.15;;;;;25.20;101531.00;;;;5086363;28;20198;-79
2023/07/11 00:20:51;;;;;;;1.27;0.90;;;;;25.20;101543.00;;;;5077559;28;20201;-79
2023/07/11 00:23:20;;;;;;;2.08;1.42;;;;;25.10;101532.00;;;;5087966;28;20217;-79
2023/07/11 00:25:47;;;;;;;2.50;1.15;;;;;25.10;101535.00;;;;5084804;28;20198;-79
2023/07/11 00:28:14;;;;;;;2.03;0.90;;;;;25.10;101537.00;;;;5100699;28;20201;-79
2023/07/11 00:30:42;;;;;;;1.73;1.20;;;;;25.10;101531.00;;;;5086160;28;20198;-79
2023/07/11 00:33:09;;;;;;;1.80;1.17;;;;;25.00;101534.00;;;;5079293;28;20237;-79
2023/07/11 00:35:38;;;;;;;2.88;1.02;;;;;25.00;101535.00;;;;5090336;28;20194;-79
2023/07/11 00:38:06;;;;;;;1.23;0.90;;;;;25.00;101524.00;;;;5088598;28;20210;-79
2023/07/11 00:40:39;;;;;;;4.32;1.08;;;;;24.90;101524.00;;;;5087100;28;20679;-79
2023/07/11 00:43:09;;;;;;;2.28;1.00;;;;;24.90;101530.00;;;;5075748;28;20202;-80
2023/07/11 00:46:03;;;;;;;2.78;1.40;;;;;24.80;101524.00;;;;5090728;28;20265;-78
2023/07/11 00:48:33;;;;;;;3.20;1.30;;;;;24.90;101524.00;;;;5091309;28;20194;-77
2023/07/11 00:51:01;;;;;;;2.35;1.00;;;;;24.90;101520.00;;;;5089558;28;20641;-77
2023/07/11 00:53:30;;;;;;;3.05;1.33;;;;;24.90;101526.00;;;;5089893;28;20234;-79
2023/07/11 00:56:05;;;;;;;3.55;1.63;;;;;24.80;101512.00;;;;5085813;28;20190;-77
2023/07/11 00:58:34;;;;;;;3.03;1.60;;;;;24.90;101513.00;;;;5089601;28;20197;-77
2023/07/11 01:01:02;;;;;;;1.58;1.15;;;;;24.80;101515.00;;;;5084506;28;20198;-77
2023/07/11 01:03:30;;;;;;;2.00;0.98;;;;;24.80;101511.00;;;;5081782;28;20281;-78
2023/07/11 01:05:59;;;;;;;3.05;1.40;;;;;24.80;101516.00;;;;5084341;28;20284;-77
2023/07/11 01:08:27;;;;;;;1.48;1.05;;;;;24.80;101521.00;;;;5090446;28;20288;-78
2023/07/11 01:10:54;;;;;;;5.10;1.40;;;;;24.80;101519.00;;;;5078097;28;20195;-77
2023/07/11 01:13:23;;;;;;;2.45;1.20;;;;;24.80;101519.00;;;;5083483;28;20230;-77
2023/07/11 01:15:50;;;;;;;2.90;1.58;;;;;24.80;101516.00;;;;5078316;28;20197;-77
2023/07/11 01:18:18;;;;;;;2.53;1.20;;;;;24.80;101511.00;;;;5090772;28;20232;-77
2023/07/11 01:20:45;;;;;;;3.15;0.90;;;;;24.70;101512.00;;;;5090179;28;20198;-78
2023/07/11 01:23:15;;;;;;;2.25;1.33;;;;;24.70;101509.00;;;;5089241;28;20214;-78
2023/07/11 01:25:43;;;;;;;2.75;1.30;;;;;24.70;101503.00;;;;5087606;28;20195;-78
2023/07/11 01:28:12;;;;;;;1.48;0.85;;;;;24.70;101499.00;;;;5088079;28;20197;-78
2023/07/11 01:30:40;;;;;;;2.17;1.00;;;;;24.70;101489.00;;;;5086122;28;20206;-78
2023/07/11 01:33:07;;;;;;;1.40;1.20;;;;;24.70;101493.00;;;;5090080;28;20241;-78
2023/07/11 01:35:35;;;;;;;5.72;1.00;;;;;24.70;101486.00;;;;5087424;28;20687;-78
2023/07/11 01:38:02;;;;;;;2.15;1.02;;;;;24.60;101491.00;;;;5082533;28;20193;-78
2023/07/11 01:40:31;;;;;;;2.20;1.35;;;;;24.60;101481.00;;;;5087934;28;20627;-78
2023/07/11 01:42:58;;;;;;;1.38;1.02;;;;;24.60;101473.00;;;;5089485;28;20665;-78
2023/07/11 01:45:26;;;;;;;0.98;0.82;;;;;24.60;101464.00;;;;5074008;28;20206;-78
2023/07/11 01:47:53;;;;;;;1.55;0.93;;;;;24.60;101466.00;;;;5087638;28;20209;-78
2023/07/11 01:50:20;;;;;;;1.13;1.00;;;;;24.60;101463.00;;;;5087871;28;20203;-78
2023/07/11 01:52:47;;;;;;;2.80;1.60;;;;;24.50;101458.00;;;;5087048;28;20222;-78
2023/07/11 01:55:15;;;;;;;1.67;1.42;;;;;24.50;101453.00;;;;5086085;28;20198;-78
2023/07/11 01:57:43;;;;;;;1.73;1.40;;;;;24.50;101451.00;;;;5086252;28;20202;-78
2023/07/11 02:00:12;;;;;;;1.88;1.10;;;;;24.50;101451.00;;;;5087108;28;20202;-77
2023/07/11 02:02:39;;;;;;;1.83;1.33;;;;;24.50;101446.00;;;;5077373;28;20190;-78
2023/07/11 02:05:07;;;;;;;14.50;1.88;;;;;24.50;101443.00;;;;5087616;28;20194;-78
2023/07/11 02:07:35;;;;;;;2.55;1.40;;;;;24.40;101427.00;;;;5087192;28;20203;-78
2023/07/11 02:10:02;;;;;;;1.80;1.00;;;;;24.40;101424.00;;;;5076613;28;20195;-78
2023/07/11 02:12:29;;;;;;;2.17;1.50;;;;;24.40;101421.00;;;;5078522;28;20214;-78
2023/07/11 02:14:58;;;;;;;1.73;1.23;;;;;24.40;101419.00;;;;5086864;28;20194;-78
2023/07/11 02:17:25;;;;;;;3.08;1.38;;;;;24.40;101414.00;;;;5087365;28;20218;-78
2023/07/11 02:19:53;;;;;;;1.02;0.90;;;;;24.40;101415.00;;;;5077946;28;20252;-78
2023/07/11 02:22:20;;;;;;;1.35;0.98;;;;;24.40;101408.00;;;;5083383;28;20201;-78
2023/07/11 02:24:47;;;;;;;1.77;1.10;;;;;24.40;101399.00;;;;5070415;28;20656;-78
2023/07/11 02:27:15;;;;;;;2.42;1.38;;;;;24.40;101394.00;;;;5097569;28;20197;-78
2023/07/11 02:29:42;;;;;;;2.38;1.10;;;;;24.30;101391.00;;;;5089145;28;20198;-78
2023/07/11 02:32:11;;;;;;;3.08;1.02;;;;;24.30;101387.00;;;;5084886;28;20203;-78
2023/07/11 02:34:38;;;;;;;2.20;1.30;;;;;24.30;101387.00;;;;5084252;28;20734;-78
2023/07/11 02:37:06;;;;;;;1.70;1.00;;;;;24.30;101388.00;;;;5076149;28;20195;-78
2023/07/11 02:39:33;;;;;;;1.30;1.20;;;;;24.30;101379.00;;;;5088063;28;20205;-78
2023/07/11 02:42:00;;;;;;;3.10;1.05;;;;;24.20;101379.00;;;;5087994;28;20195;-78
2023/07/11 02:44:27;;;;;;;1.98;1.17;;;;;24.20;101375.00;;;;5082224;28;20199;-78
2023/07/11 02:46:55;;;;;;;2.63;1.20;;;;;24.20;101374.00;;;;5079298;28;20199;-78
2023/07/11 02:49:23;;;;;;;2.60;1.25;;;;;24.20;101369.00;;;;5088353;28;20201;-78
2023/07/11 02:51:51;;;;;;;2.38;1.02;;;;;24.20;101369.00;;;;5088165;28;20209;-78
2023/07/11 02:54:18;;;;;;;1.70;1.27;;;;;24.10;101366.00;;;;5082684;28;20217;-78
2023/07/11 02:56:45;;;;;;;2.40;1.00;;;;;24.10;101365.00;;;;5088724;28;20202;-78
2023/07/11 02:59:12;;;;;;;3.75;1.35;;;;;24.10;101360.00;;;;5088021;28;20729;-78
2023/07/11 03:01:40;;;;;;;1.50;1.15;;;;;24.10;101366.00;;;;5086348;28;20190;-78
2023/07/11 03:04:07;;;;;;;1.70;0.90;;;;;24.00;101358.00;;;;5083167;28;20313;-78
2023/07/11 03:06:36;;;;;;;1.98;1.27;;;;;24.00;101351.00;;;;5083738;28;20205;-78
2023/07/11 03:09:04;;;;;;;4.30;1.58;;;;;24.00;101346.00;;;;5071868;28;20195;-78
2023/07/11 03:11:32;;;;;;;2.92;1.33;;;;;24.00;101333.00;;;;5086857;28;20202;-78
2023/07/11 03:13:59;;;;;;;1.25;0.98;;;;;24.00;101334.00;;;;5086993;28;20253;-78
2023/07/11 03:16:26;;;;;;;2.42;1.40;;;;;23.90;101330.00;;;;5086722;28;20265;-78
2023/07/11 03:18:53;;;;;;;4.30;1.33;;;;;23.90;101330.00;;;;5087430;28;20559;-78
2023/07/11 03:21:21;;;;;;;2.05;0.82;;;;;23.90;101325.00;;;;5080229;28;20550;-78
2023/07/11 03:23:49;;;;;;;1.48;1.00;;;;;23.90;101330.00;;;;5067700;28;20222;-78
2023/07/11 03:26:17;;;;;;;2.88;1.38;;;;;23.90;101331.00;;;;5073684;28;20203;-78
2023/07/11 03:28:44;;;;;;;2.88;1.00;;;;;23.90;101336.00;;;;5075946;28;20195;-78
2023/07/11 03:31:11;;;;;;;2.25;1.23;;;;;23.80;101327.00;;;;5076527;28;20197;-78
2023/07/11 03:33:38;;;;;;;5.47;1.17;;;;;23.80;101330.00;;;;5080057;28;20266;-78
2023/07/11 03:36:06;;;;;;;1.70;1.10;;;;;23.80;101322.00;;;;5083049;28;20199;-78
2023/07/11 03:38:33;;;;;;;2.97;1.63;;;;;23.80;101317.00;;;;5074834;28;20195;-78
2023/07/11 03:41:02;;;;;;;4.35;1.30;;;;;23.80;101321.00;;;;5083429;28;20194;-77
2023/07/11 03:43:30;;;;;;;2.17;1.10;;;;;23.80;101314.00;;;;5082267;28;20205;-78
2023/07/11 03:45:57;;;;;;;1.45;1.20;;;;;23.80;101317.00;;;;5085530;28;20282;-78
2023/07/11 03:48:24;;;;;;;2.28;1.10;;;;;23.80;101315.00;;;;5082055;28;20194;-78
2023/07/11 03:50:51;;;;;;;1.13;1.02;;;;;23.80;101310.00;;;;5087418;28;20194;-79
2023/07/11 03:53:19;;;;;;;2.83;1.17;;;;;23.70;101311.00;;;;5084088;28;20221;-78
2023/07/11 03:55:46;;;;;;;1.77;1.35;;;;;23.80;101313.00;;;;5083745;28;20627;-79
2023/07/11 03:58:15;;;;;;;3.22;1.20;;;;;23.70;101307.00;;;;5083782;28;20206;-78
2023/07/11 04:00:43;;;;;;;3.10;1.50;;;;;23.70;101312.00;;;;5084227;28;20203;-79
2023/07/11 04:03:10;;;;;;;3.80;1.50;;;;;23.70;101310.00;;;;5087085;28;20276;-78
2023/07/11 04:05:37;;;;;;;1.50;1.13;;;;;23.70;101309.00;;;;5075768;28;20209;-78
2023/07/11 04:08:05;;;;;;;2.00;1.58;;;;;23.70;101306.00;;;;5076971;28;20189;-78
2023/07/11 04:10:33;;;;;;;2.40;1.40;;;;;23.70;101311.00;;;;5097672;28;20575;-78
2023/07/11 04:13:00;;;;;;;4.97;1.85;;;;;23.70;101302.00;;;;5077409;28;20617;-78
2023/07/11 04:15:29;;;;;;;2.83;1.70;;;;;23.70;101303.00;;;;5083275;28;20219;-78
2023/07/11 04:17:56;;;;;;;3.20;1.85;;;;;23.70;101302.00;;;;5076995;28;20221;-78
2023/07/11 04:20:23;;;;;;;1.95;1.60;;;;;23.70;101296.00;;;;5077426;28;20820;-78
2023/07/11 04:22:51;;;;;;;1.92;1.40;;;;;23.70;101289.00;;;;5076937;28;20197;-78
2023/07/11 04:25:19;;;;;;;3.50;1.90;;;;;23.70;101287.00;;;;5089014;28;20190;-78
2023/07/11 04:27:47;;;;;;;2.30;1.70;;;;;23.80;101285.00;;;;5087045;28;20198;-78
2023/07/11 04:30:15;;;;;;;2.25;1.73;;;;;23.80;101284.00;;;;5087204;28;20202;-78
2023/07/11 04:32:43;;;;;;;2.17;1.98;;;;;23.80;101275.00;;;;5075800;28;20226;-78
2023/07/11 04:35:14;;;;;;;4.28;2.30;;;;;23.80;101273.00;;;;5083596;28;20557;-78
2023/07/11 04:37:42;;;;;;;3.55;2.22;;;;;23.80;101267.00;;;;5082936;28;20240;-78
2023/07/11 04:40:11;;;;;;;5.03;2.50;;;;;23.80;101271.00;;;;5084778;28;20209;-78
2023/07/11 04:42:38;;;;;;;3.00;2.70;;;;;23.80;101271.00;;;;5085479;28;20225;-78
2023/07/11 04:45:08;;;;;;;3.83;2.53;;;;;23.90;101261.00;;;;5085356;28;20202;-78
2023/07/11 04:47:36;;;;;;;4.57;3.08;;;;;23.90;101256.00;;;;5085188;28;20195;-78
2023/07/11 04:50:05;;;;;;;4.15;3.13;;;;;23.90;101264.00;;;;5085887;28;20203;-78
2023/07/11 04:52:33;;;;;;;4.20;3.50;;;;;24.00;101265.00;;;;5084506;28;20206;-78
2023/07/11 04:55:00;;;;;;;5.25;3.55;;;;;24.00;101257.00;;;;5068076;28;20223;-78
2023/07/11 04:57:28;;;;;;;6.20;4.40;;;;;24.00;101261.00;;;;5081562;28;20209;-77
2023/07/11 04:59:55;;;;;;;4.10;3.58;;;;;24.10;101246.00;;;;5087163;28;20191;-77
2023/07/11 05:02:22;;;;;;;5.57;3.58;;;;;24.10;101239.00;;;;5084844;28;20201;-77
2023/07/11 05:04:49;;;;;;;8.60;3.97;;;;;24.20;101238.00;;;;5085616;28;20203;-78
2023/07/11 05:07:18;;;;;;;7.10;4.57;;;;;24.20;101234.00;;;;5081899;28;20194;-78
2023/07/11 05:09:45;;;;;;;4.75;4.28;;;;;24.30;101242.00;;;;5082015;28;20849;-80
2023/07/11 05:12:16;;;;;;;6.22;4.75;;;;;24.30;101244.00;;;;5089212;28;20205;-79
2023/07/11 05:14:43;;;;;;;4.95;4.47;;;;;24.40;101232.00;;;;5088340;28;20229;-79
2023/07/11 05:17:10;;;;;;;6.28;3.53;;;;;24.40;101232.00;;;;5099065;28;20595;-79
2023/07/11 05:19:38;;;;;;;6.07;4.80;;;;;24.40;101226.00;;;;5097143;28;20202;-79
2023/07/11 05:22:05;;;;;;;5.63;4.13;;;;;24.50;101233.00;;;;5088150;28;20204;-79
2023/07/11 05:24:35;;;;;;;6.22;4.53;;;;;24.50;101227.00;;;;5086784;28;20198;-79
2023/07/11 05:27:02;;;;;;;8.27;4.25;;;;;24.60;101217.00;;;;5085271;28;20202;-80
2023/07/11 05:29:30;;;;;;;5.97;4.57;;;;;24.60;101211.00;;;;5088394;28;20648;-79
2023/07/11 05:31:57;;;;;;;6.57;4.68;;;;;24.70;101213.00;;;;5082244;28;20283;-80
2023/07/11 05:34:25;;;;;;;5.97;4.97;;;;;24.70;101218.00;;;;5089500;28;20230;-79
2023/07/11 05:36:52;;;;;;;5.32;4.78;;;;;24.80;101218.00;;;;5089474;28;20206;-79
2023/07/11 05:39:19;;;;;;;5.03;4.53;;;;;24.80;101207.00;;;;5072215;28;20195;-79
2023/07/11 05:41:52;;;;;;;5.40;4.88;;;;;24.90;101215.00;;;;5081743;28;20205;-79
2023/07/11 05:44:19;;;;;;;6.93;5.05;;;;;25.00;101207.00;;;;5085634;28;20202;-80
2023/07/11 05:46:46;;;;;;;4.68;4.28;;;;;25.00;101215.00;;;;5078029;28;20201;-79
2023/07/11 05:49:14;;;;;;;7.70;4.43;;;;;25.10;101213.00;;;;5077987;28;20199;-80
2023/07/11 05:51:41;;;;;;;5.88;4.55;;;;;25.20;101213.00;;;;5085138;28;20214;-80
2023/07/11 05:54:08;;;;;;;5.00;4.25;;;;;25.20;101202.00;;;;5087059;28;20214;-80
2023/07/11 05:56:36;;;;;;;6.70;4.72;;;;;25.30;101203.00;;;;5081467;28;20203;-80
2023/07/11 05:59:04;;;;;;;5.40;4.90;;;;;25.40;101195.00;;;;5099334;28;20213;-80
2023/07/11 06:01:32;;;;;;;5.47;4.40;;;;;25.50;101196.00;;;;5089129;28;20194;-80
2023/07/11 06:04:07;;;;;;;5.45;4.07;;;;;25.50;101193.00;;;;5080916;28;20291;-80
2023/07/11 06:06:41;;;;;;;5.80;3.70;;;;;25.60;101185.00;;;;5084312;28;20197;-81
2023/07/11 06:09:10;;;;;;;4.68;3.90;;;;;25.70;101185.00;;;;5088487;28;20225;-81
2023/07/11 06:11:37;;;;;;;7.00;4.07;;;;;25.80;101186.00;;;;5085570;28;20198;-81
2023/07/11 06:14:07;;;;;;;4.53;3.90;;;;;25.90;101184.00;;;;5080046;28;20218;-81
2023/07/11 06:16:34;;;;;;;5.90;3.83;;;;;26.00;101187.00;;;;5105097;28;20232;-81
2023/07/11 06:19:03;;;;;;;6.78;3.90;;;;;26.10;101184.00;;;;5074470;28;20199;-80
2023/07/11 06:21:31;;;;;;;5.07;4.10;;;;;26.20;101179.00;;;;5072393;28;20206;-79
2023/07/11 06:23:59;;;;;;;4.25;3.40;;;;;26.30;101179.00;;;;5090818;28;20190;-80
2023/07/11 06:26:26;;;;;;;5.07;3.42;;;;;26.40;101187.00;;;;5096616;28;20213;-80
2023/07/11 06:28:54;;;;;;;5.30;3.65;;;;;26.40;101186.00;;;;5088004;28;20200;-79
2023/07/11 06:31:22;;;;;;;5.45;3.95;;;;;26.50;101186.00;;;;5088410;28;20198;-80
2023/07/11 06:33:50;;;;;;;3.55;2.95;;;;;26.60;101183.00;;;;5095350;28;20321;-80
2023/07/11 06:36:17;;;;;;;5.35;3.05;;;;;26.70;101187.00;;;;5090417;28;20230;-80
2023/07/11 06:38:45;;;;;;;3.83;2.60;;;;;26.70;101178.00;;;;5103504;28;20197;-80
2023/07/11 06:41:12;;;;;;;3.63;2.60;;;;;26.80;101173.00;;;;5091253;28;20205;-80
2023/07/11 06:43:41;;;;;;;4.32;3.17;;;;;26.90;101173.00;;;;5088442;28;20205;-81
2023/07/11 06:46:09;;;;;;;3.22;2.55;;;;;27.00;101176.00;;;;5079941;28;20274;-81
2023/07/11 06:48:37;;;;;;;3.53;2.67;;;;;27.10;101173.00;;;;5081303;28;20217;-80
2023/07/11 06:51:05;;;;;;;7.78;2.47;;;;;27.20;101172.00;;;;5086302;28;20203;-81
2023/07/11 06:53:35;;;;;;;4.80;2.90;;;;;27.20;101167.00;;;;5084049;28;20195;-81
2023/07/11 06:56:03;;;;;;;2.72;2.50;;;;;27.30;101169.00;;;;5080634;28;20201;-80
2023/07/11 06:58:30;;;;;;;5.72;2.42;;;;;27.40;101168.00;;;;5081181;28;20205;-82
2023/07/11 07:01:01;;;;;;;5.05;2.33;;;;;27.50;101165.00;;;;5087585;28;20590;-81
2023/07/11 07:03:29;;;;;;;3.80;2.33;;;;;27.60;101156.00;;;;5079534;28;20222;-80
2023/07/11 07:06:01;;;;;;;2.00;1.75;;;;;27.70;101166.00;;;;5087787;28;20290;-81
2023/07/11 07:08:28;;;;;;;2.58;2.03;;;;;27.80;101166.00;;;;5087791;28;20575;-80
2023/07/11 07:10:56;;;;;;;3.22;1.70;;;;;27.80;101167.00;;;;5081193;28;20195;-80
2023/07/11 07:13:24;;;;;;;3.65;2.00;;;;;27.90;101167.00;;;;5080534;28;20198;-81
2023/07/11 07:15:53;;;;;;;4.50;2.22;;;;;28.00;101166.00;;;;5079849;28;20240;-81
2023/07/11 07:18:21;;;;;;;2.33;1.70;;;;;28.10;101164.00;;;;5086744;28;20217;-83
2023/07/11 07:20:50;;;;;;;2.65;1.77;;;;;28.20;101162.00;;;;5087517;28;20212;-81
2023/07/11 07:23:18;;;;;;;4.75;2.05;;;;;28.30;101158.00;;;;5078865;28;20217;-81
2023/07/11 07:25:52;;;;;;;2.92;2.05;;;;;28.30;101164.00;;;;5080278;28;20193;-81
2023/07/11 07:28:20;;;;;;;2.88;2.00;;;;;28.50;101157.00;;;;5086280;28;20190;-81
2023/07/11 07:30:48;;;;;;;4.93;1.95;;;;;28.60;101158.00;;;;5081150;28;20208;-81
2023/07/11 07:33:16;;;;;;;4.20;1.65;;;;;28.70;101152.00;;;;5085410;28;20229;-81
2023/07/11 07:35:44;;;;;;;4.18;2.38;;;;;28.80;101144.00;;;;5082773;28;20215;-81
2023/07/11 07:38:12;;;;;;;2.22;1.52;;;;;28.80;101146.00;;;;5079981;28;20191;-81
2023/07/11 07:40:41;;;;;;;2.10;1.45;;;;;28.90;101151.00;;;;5087184;28;20198;-81
2023/07/11 07:43:08;;;;;;;2.53;1.70;;;;;29.10;101152.00;;;;5086458;28;20719;-82
2023/07/11 07:45:36;;;;;;;2.80;1.80;;;;;29.20;101150.00;;;;5085972;28;20209;-81
2023/07/11 07:48:03;;;;;;;3.25;1.88;;;;;29.30;101144.00;;;;5068004;28;20198;-81
2023/07/11 07:50:30;;;;;;;3.03;1.92;;;;;29.40;101148.00;;;;5080954;28;20199;-81
2023/07/11 07:52:57;;;;;;;3.80;1.67;;;;;29.40;101153.00;;;;5075897;28;20209;-81
2023/07/11 07:55:25;;;;;;;4.43;2.25;;;;;29.50;101142.00;;;;5084422;28;20711;-81
2023/07/11 07:57:53;;;;;;;1.67;1.58;;;;;29.60;101150.00;;;;5080704;28;20194;-80
2023/07/11 08:00:21;;;;;;;2.13;1.58;;;;;29.70;101141.00;;;;5087289;28;20201;-81
2023/07/11 08:02:48;;;;;;;3.08;1.40;;;;;29.80;101146.00;;;;5079169;28;20210;-83
2023/07/11 08:05:17;;;;;;;3.47;1.80;;;;;29.90;101138.00;;;;5086359;28;20291;-81
2023/07/11 08:07:44;;;;;;;3.30;1.63;;;;;30.00;101134.00;;;;5091760;28;20273;-81
2023/07/11 08:10:12;;;;;;;2.20;1.17;;;;;30.10;101135.00;;;;5085502;28;20194;-82
2023/07/11 08:12:39;;;;;;;3.38;1.80;;;;;30.20;101126.00;;;;5077577;28;20202;-81
2023/07/11 08:15:09;;;;;;;1.75;1.15;;;;;30.30;101135.00;;;;5067460;28;20222;-81
2023/07/11 08:17:37;;;;;;;2.03;1.35;;;;;30.40;101141.00;;;;5078489;28;20596;-81
2023/07/11 08:20:05;;;;;;;3.20;1.70;;;;;30.50;101137.00;;;;5075480;28;20691;-81
2023/07/11 08:22:32;;;;;;;2.33;1.40;;;;;30.60;101132.00;;;;5083204;28;20210;-80
2023/07/11 08:24:59;;;;;;;3.20;1.77;;;;;30.70;101142.00;;;;5086558;28;20205;-81
2023/07/11 08:27:26;;;;;;;1.63;1.13;;;;;30.90;101138.00;;;;5087325;28;20202;-81
2023/07/11 08:29:54;;;;;;;4.40;1.35;;;;;31.00;101136.00;;;;5080483;28;20209;-81
2023/07/11 08:32:22;;;;;;;6.30;1.80;;;;;31.10;101136.00;;;;5082301;28;20202;-81
2023/07/11 08:34:50;;;;;;;2.88;1.50;;;;;31.20;101134.00;;;;5070568;28;20211;-80
2023/07/11 08:37:19;;;;;;;2.05;1.00;;;;;31.30;101125.00;;;;5083140;28;20198;-81
2023/07/11 08:39:46;;;;;;;1.83;1.40;;;;;31.40;101133.00;;;;5083813;28;20206;-82
2023/07/11 08:42:24;;;;;;;3.85;1.10;;;;;31.40;101134.00;;;;5099111;28;20202;-81
2023/07/11 08:44:56;;;;;;;4.60;1.75;;;;;31.50;101134.00;;;;5068702;28;20198;-82
2023/07/11 08:47:29;;;;;;;2.40;1.25;;;;;31.60;101120.00;;;;5076144;28;20210;-80
2023/07/11 08:50:02;;;;;;;2.90;0.98;;;;;31.60;101141.00;;;;5085782;28;20198;-82
2023/07/11 08:52:32;;;;;;;2.20;1.40;;;;;31.70;101124.00;;;;5070787;28;20199;-83
2023/07/11 08:55:04;;;;;;;1.92;0.95;;;;;31.70;101123.00;;;;5078815;28;20225;-82
2023/07/11 08:57:36;;;;;;;1.25;0.95;;;;;31.80;101124.00;;;;5088665;28;20606;-81
2023/07/11 09:00:09;;;;;;;2.03;1.20;;;;;31.80;101126.00;;;;5089216;28;20210;-80
2023/07/11 09:02:46;;;;;;;3.00;1.33;;;;;31.90;101117.00;;;;5090683;28;20198;-80
2023/07/11 09:05:19;;;;;;;3.30;1.50;;;;;32.00;101125.00;;;;5090640;28;20647;-82
2023/07/11 09:07:47;;;;;;;2.20;1.27;;;;;32.10;101126.00;;;;5084728;28;20205;-82
2023/07/11 09:10:38;;;;;;;2.15;1.33;;;;;32.00;101125.00;;;;5088946;28;20202;-81
2023/07/11 09:13:19;;;;;;;2.55;1.38;;;;;32.10;101118.00;;;;5089952;28;20190;-81
2023/07/11 09:15:54;;;;;;;1.80;1.13;;;;;32.20;101116.00;;;;5090619;28;20221;-81
2023/07/11 09:18:39;;;;;;;2.83;1.67;;;;;32.30;101111.00;;;;5090187;28;20314;-81
2023/07/11 09:21:14;;;;;;;4.75;1.42;;;;;32.40;101107.00;;;;5073732;28;20581;-81
2023/07/11 09:23:51;;;;;;;2.17;1.23;;;;;32.50;101110.00;;;;5084079;28;20941;-82
2023/07/11 09:26:25;;;;;;;2.88;1.20;;;;;32.70;101106.00;;;;5070104;28;20190;-82
2023/07/11 09:28:59;;;;;;;1.80;1.30;;;;;32.80;101107.00;;;;5089076;28;20932;-82
2023/07/11 09:31:27;;;;;;;8.23;1.55;;;;;32.90;101100.00;;;;5089970;28;20205;-81
2023/07/11 09:33:58;;;;;;;2.30;1.30;;;;;32.90;101103.00;;;;5077757;28;20234;-81
2023/07/11 09:36:30;;;;;;;4.35;1.45;;;;;33.00;101109.00;;;;5089149;28;20752;-82
2023/07/11 09:39:04;;;;;;;5.85;2.00;;;;;33.10;101109.00;;;;5080538;28;20195;-83
2023/07/11 09:41:50;;;;;;;3.00;1.48;;;;;33.00;101107.00;;;;5070339;28;20194;-82
2023/07/11 09:44:18;;;;;;;1.45;1.17;;;;;33.20;101108.00;;;;5088370;28;20197;-82
2023/07/11 09:46:47;;;;;;;3.97;1.67;;;;;33.20;101112.00;;;;5086518;28;20205;-85
2023/07/11 09:49:20;;;;;;;2.78;1.42;;;;;33.20;101110.00;;;;5087585;28;20210;-84
2023/07/11 09:51:51;;;;;;;2.47;1.48;;;;;33.30;101102.00;;;;5079735;28;20190;-84
2023/07/11 09:54:19;;;;;;;8.02;1.83;;;;;33.30;101095.00;;;;5073016;28;20206;-85
2023/07/11 09:56:48;;;;;;;2.90;1.50;;;;;33.40;101105.00;;;;5075951;28;20218;-84
2023/07/11 09:59:18;;;;;;;3.63;1.77;;;;;33.40;101095.00;;;;5078148;28;20205;-86
2023/07/11 10:01:46;;;;;;;3.08;1.33;;;;;33.40;101103.00;;;;5081840;28;20316;-83
2023/07/11 10:04:21;;;;;;;4.07;1.63;;;;;33.40;101100.00;;;;5090928;28;20201;-85
2023/07/11 10:06:56;;;;;;;2.33;1.38;;;;;33.40;101092.00;;;;5092130;28;20205;-85
2023/07/11 10:09:25;;;;;;;2.40;1.58;;;;;33.40;101083.00;;;;5089270;28;20200;-84
2023/07/11 10:11:56;;;;;;;5.78;1.67;;;;;33.40;101089.00;;;;5089837;28;20569;-85
2023/07/11 10:14:33;;;;;;;2.22;1.40;;;;;33.30;101084.00;;;;5070729;28;20194;-83
2023/07/11 10:17:04;;;;;;;5.90;1.85;;;;;33.30;101084.00;;;;5071808;28;20284;-85
2023/07/11 10:19:33;;;;;;;2.00;1.48;;;;;33.30;101084.00;;;;5088551;28;20198;-86
2023/07/11 10:22:02;;;;;;;1.67;1.17;;;;;33.30;101087.00;;;;5082575;28;20211;-84
2023/07/11 10:24:39;;;;;;;3.70;1.67;;;;;33.20;101074.00;;;;5071868;28;20202;-83
2023/07/11 10:27:13;;;;;;;2.63;1.70;;;;;33.20;101080.00;;;;5078475;28;20191;-84
2023/07/11 10:29:46;;;;;;;2.20;1.40;;;;;33.20;101072.00;;;;5080834;28;20197;-83
2023/07/11 10:32:17;;;;;;;3.53;1.92;;;;;33.30;101073.00;;;;5085257;28;20213;-84
2023/07/11 10:34:51;;;;;;;2.33;1.58;;;;;33.30;101071.00;;;;5085771;28;20273;-85
2023/07/11 10:37:27;;;;;;;3.17;1.75;;;;;33.30;101068.00;;;;5087499;28;20282;-83
2023/07/11 10:40:03;;;;;;;3.17;1.92;;;;;33.30;101069.00;;;;5081501;28;20579;-84
2023/07/11 10:42:38;;;;;;;1.98;1.27;;;;;33.30;101074.00;;;;5083347;28;20212;-85
2023/07/11 10:45:12;;;;;;;2.00;1.70;;;;;33.30;101073.00;;;;5090142;28;20201;-84
2023/07/11 10:47:47;;;;;;;2.85;1.73;;;;;33.30;101072.00;;;;5086721;28;20651;-85
2023/07/11 10:50:33;;;;;;;2.92;1.40;;;;;33.30;101068.00;;;;5090200;28;20208;-84
2023/07/11 10:53:05;;;;;;;5.18;1.70;;;;;33.40;101071.00;;;;5079812;28;20722;-84
2023/07/11 10:55:50;;;;;;;2.70;1.75;;;;;33.30;101069.00;;;;5081060;28;20232;-85
2023/07/11 10:58:21;;;;;;;2.15;1.45;;;;;33.40;101061.00;;;;5093504;28;20216;-85
2023/07/11 11:00:58;;;;;;;2.80;1.73;;;;;33.30;101065.00;;;;5073728;28;20195;-85
2023/07/11 11:03:38;;;;;;;3.50;1.63;;;;;33.30;101064.00;;;;5089225;28;20201;-85
2023/07/11 11:06:28;;;;;;;3.15;1.80;;;;;33.30;101057.00;;;;5086346;28;20197;-84
2023/07/11 11:09:07;;;;;;;2.25;1.25;;;;;33.30;101053.00;;;;5085138;28;20568;-85
2023/07/11 11:11:46;;;;;;;3.38;2.00;;;;;33.30;101051.00;;;;5073865;28;20197;-85
2023/07/11 11:14:16;;;;;;;2.42;1.45;;;;;33.40;101059.00;;;;5080173;28;20937;-85
2023/07/11 11:17:00;;;;;;;2.58;1.50;;;;;33.30;101052.00;;;;5089468;28;20222;-85
2023/07/11 11:19:44;;;;;;;1.73;1.50;;;;;33.40;101043.00;;;;5068836;28;20198;-85
2023/07/11 11:22:19;;;;;;;3.47;1.60;;;;;33.40;101040.00;;;;5078707;28;20666;-85
2023/07/11 11:24:58;;;;;;;4.00;1.50;;;;;33.50;101044.00;;;;5082155;28;20198;-85
2023/07/11 11:27:40;;;;;;;2.90;1.80;;;;;33.50;101034.00;;;;5077003;28;20556;-85
2023/07/11 11:30:20;;;;;;;3.55;1.48;;;;;33.60;101041.00;;;;5088787;28;20205;-85
2023/07/11 11:32:55;;;;;;;1.98;1.40;;;;;33.70;101049.00;;;;5074166;28;20214;-87
2023/07/11 11:35:32;;;;;;;4.05;1.88;;;;;33.70;101035.00;;;;5080120;28;20220;-87
2023/07/11 11:38:39;;;;;;;2.78;1.55;;;;;33.70;101033.00;;;;5080287;28;20660;-86
2023/07/11 11:41:13;;;;;;;2.75;1.40;;;;;33.80;101039.00;;;;5083602;28;20201;-86
2023/07/11 11:43:45;;;;;;;3.58;1.85;;;;;33.80;101037.00;;;;5080020;28;20202;-85
2023/07/11 11:46:15;;;;;;;2.78;1.85;;;;;33.80;101033.00;;;;5085897;28;20198;-86
2023/07/11 11:48:44;;;;;;;4.05;1.85;;;;;33.90;101040.00;;;;5075309;28;20194;-84
2023/07/11 11:51:17;;;;;;;3.30;1.88;;;;;33.90;101027.00;;;;5083444;28;20209;-85
2023/07/11 11:54:01;;;;;;;5.45;2.00;;;;;34.00;101033.00;;;;5077224;28;20201;-85
2023/07/11 11:56:29;;;;;;;4.85;2.13;;;;;34.00;101036.00;;;;5078256;28;20226;-85
2023/07/11 11:59:02;;;;;;;2.80;1.63;;;;;34.00;101020.00;;;;5083698;28;20200;-86
2023/07/11 12:01:40;;;;;;;4.35;2.75;;;;;34.00;101025.00;;;;5079787;28;20198;-86
2023/07/11 12:04:56;;;;;;;5.05;2.22;;;;;33.90;101022.00;;;;5075984;28;20194;-84
2023/07/11 12:07:41;;;;;;;2.75;1.80;;;;;33.80;101022.00;;;;5097753;28;20255;-86
2023/07/11 12:10:15;;;;;;;7.90;2.30;;;;;33.90;101022.00;;;;5074137;28;20194;-84
2023/07/11 12:13:11;;;;;;;3.08;1.58;;;;;33.90;101015.00;;;;5076216;28;20679;-85
2023/07/11 12:15:39;;;;;;;4.43;2.10;;;;;34.00;101016.00;;;;5079495;28;20226;-86
2023/07/11 12:18:25;;;;;;;8.35;2.05;;;;;34.00;101012.00;;;;5074867;28;20218;-85
2023/07/11 12:21:26;;;;;;;4.95;1.88;;;;;34.00;101004.00;;;;5087586;28;20194;-87
2023/07/11 12:24:11;;;;;;;3.22;1.95;;;;;34.10;101023.00;;;;5095407;28;20663;-86